sensor_id;sensor_type;location;lat;lon;timestamp;temperature;humidity
60848;DHT22;46681;47.696;9.140;2024-01-16T00:02:04;9.10;39.10
60848;DHT22;46681;47.696;9.140;2024-01-16T00:04:29;9.10;39.10
60848;DHT22;46681;47.696;9.140;2024-01-16T00:06:57;9.10;39.20
60848;DHT22;46681;47.696;9.140;2024-01-16T00:09:23;9.10;39.10
60848;DHT22;46681;47.696;9.140;2024-01-16T00:11:48;9.00;39.10
60848;DHT22;46681;47.696;9.140;2024-01-16T00:14:14;9.00;39.00
60848;DHT22;46681;47.696;9.140;2024-01-16T00:16:43;9.00;39.10
60848;DHT22;46681;47.696;9.140;2024-01-16T00:19:10;8.90;39.10
60848;DHT22;46681;47.696;9.140;2024-01-16T00:21:43;8.90;39.10
60848;DHT22;46681;47.696;9.140;2024-01-16T00:24:08;8.90;39.10
60848;DHT22;46681;47.696;9.140;2024-01-16T00:26:37;8.90;39.10
60848;DHT22;46681;47.696;9.140;2024-01-16T00:29:02;8.90;39.50
60848;DHT22;46681;47.696;9.140;2024-01-16T00:31:28;8.80;39.00
60848;DHT22;46681;47.696;9.140;2024-01-16T00:33:53;8.80;39.10
60848;DHT22;46681;47.696;9.140;2024-01-16T00:36:19;8.90;39.10
60848;DHT22;46681;47.696;9.140;2024-01-16T00:38:45;8.80;39.10
60848;DHT22;46681;47.696;9.140;2024-01-16T00:41:10;8.80;39.10
60848;DHT22;46681;47.696;9.140;2024-01-16T00:43:36;8.80;39.10
60848;DHT22;46681;47.696;9.140;2024-01-16T00:46:01;8.70;39.00
60848;DHT22;46681;47.696;9.140;2024-01-16T00:48:27;8.70;39.10
60848;DHT22;46681;47.696;9.140;2024-01-16T00:50:52;8.70;39.10
60848;DHT22;46681;47.696;9.140;2024-01-16T00:53:19;8.70;39.10
60848;DHT22;46681;47.696;9.140;2024-01-16T00:55:45;8.70;39.10
60848;DHT22;46681;47.696;9.140;2024-01-16T00:58:10;8.70;39.10
60848;DHT22;46681;47.696;9.140;2024-01-16T01:00:36;8.70;39.10
60848;DHT22;46681;47.696;9.140;2024-01-16T01:03:04;8.70;39.00
60848;DHT22;46681;47.696;9.140;2024-01-16T01:05:30;8.70;39.00
60848;DHT22;46681;47.696;9.140;2024-01-16T01:07:56;8.70;39.10
60848;DHT22;46681;47.696;9.140;2024-01-16T01:10:22;8.70;39.10
60848;DHT22;46681;47.696;9.140;2024-01-16T01:12:48;8.70;39.10
60848;DHT22;46681;47.696;9.140;2024-01-16T01:15:14;8.70;39.10
60848;DHT22;46681;47.696;9.140;2024-01-16T01:17:40;8.70;39.10
60848;DHT22;46681;47.696;9.140;2024-01-16T01:20:07;8.70;39.10
60848;DHT22;46681;47.696;9.140;2024-01-16T01:22:33;8.70;39.10
60848;DHT22;46681;47.696;9.140;2024-01-16T01:24:58;8.70;39.10
60848;DHT22;46681;47.696;9.140;2024-01-16T01:27:24;8.70;39.10
60848;DHT22;46681;47.696;9.140;2024-01-16T01:29:49;8.70;39.10
60848;DHT22;46681;47.696;9.140;2024-01-16T01:32:15;8.70;39.10
60848;DHT22;46681;47.696;9.140;2024-01-16T01:34:44;8.70;39.20
60848;DHT22;46681;47.696;9.140;2024-01-16T01:37:10;8.60;39.10
60848;DHT22;46681;47.696;9.140;2024-01-16T01:39:35;8.70;39.10
60848;DHT22;46681;47.696;9.140;2024-01-16T01:42:01;8.70;39.20
60848;DHT22;46681;47.696;9.140;2024-01-16T01:44:30;8.70;39.20
60848;DHT22;46681;47.696;9.140;2024-01-16T01:46:56;8.70;39.20
60848;DHT22;46681;47.696;9.140;2024-01-16T01:49:22;8.70;39.20
60848;DHT22;46681;47.696;9.140;2024-01-16T01:51:49;8.70;39.20
60848;DHT22;46681;47.696;9.140;2024-01-16T01:54:15;8.70;39.30
60848;DHT22;46681;47.696;9.140;2024-01-16T01:56:44;8.70;39.20
60848;DHT22;46681;47.696;9.140;2024-01-16T01:59:10;8.70;39.30
60848;DHT22;46681;47.696;9.140;2024-01-16T02:01:36;8.70;39.20
60848;DHT22;46681;47.696;9.140;2024-01-16T02:04:04;8.80;39.30
60848;DHT22;46681;47.696;9.140;2024-01-16T02:06:30;8.80;39.30
60848;DHT22;46681;47.696;9.140;2024-01-16T02:08:56;8.80;39.30
60848;DHT22;46681;47.696;9.140;2024-01-16T02:11:22;8.80;39.30
60848;DHT22;46681;47.696;9.140;2024-01-16T02:13:48;8.80;39.30
60848;DHT22;46681;47.696;9.140;2024-01-16T02:16:23;8.80;39.30
60848;DHT22;46681;47.696;9.140;2024-01-16T02:18:49;8.80;39.30
60848;DHT22;46681;47.696;9.140;2024-01-16T02:21:21;8.80;39.30
60848;DHT22;46681;47.696;9.140;2024-01-16T02:23:48;8.80;39.30
60848;DHT22;46681;47.696;9.140;2024-01-16T02:26:14;8.80;39.30
60848;DHT22;46681;47.696;9.140;2024-01-16T02:28:40;8.80;39.30
60848;DHT22;46681;47.696;9.140;2024-01-16T02:31:09;8.80;39.20
60848;DHT22;46681;47.696;9.140;2024-01-16T02:33:35;8.80;39.20
60848;DHT22;46681;47.696;9.140;2024-01-16T02:36:00;8.80;39.30
60848;DHT22;46681;47.696;9.140;2024-01-16T02:38:26;8.80;39.20
60848;DHT22;46681;47.696;9.140;2024-01-16T02:40:51;8.90;39.20
60848;DHT22;46681;47.696;9.140;2024-01-16T02:43:17;8.80;39.10
60848;DHT22;46681;47.696;9.140;2024-01-16T02:45:43;8.80;39.20
60848;DHT22;46681;47.696;9.140;2024-01-16T02:48:10;8.80;39.20
60848;DHT22;46681;47.696;9.140;2024-01-16T02:50:35;8.80;39.10
60848;DHT22;46681;47.696;9.140;2024-01-16T02:53:03;8.80;39.20
60848;DHT22;46681;47.696;9.140;2024-01-16T02:55:29;8.80;39.20
60848;DHT22;46681;47.696;9.140;2024-01-16T02:57:54;8.80;39.20
60848;DHT22;46681;47.696;9.140;2024-01-16T03:00:20;8.80;39.20
60848;DHT22;46681;47.696;9.140;2024-01-16T03:02:46;8.80;39.30
60848;DHT22;46681;47.696;9.140;2024-01-16T03:05:11;8.80;39.20
60848;DHT22;46681;47.696;9.140;2024-01-16T03:07:37;8.70;39.20
60848;DHT22;46681;47.696;9.140;2024-01-16T03:10:03;8.80;39.20
60848;DHT22;46681;47.696;9.140;2024-01-16T03:12:28;8.80;39.30
60848;DHT22;46681;47.696;9.140;2024-01-16T03:14:54;8.70;39.20
60848;DHT22;46681;47.696;9.140;2024-01-16T03:17:20;8.70;39.20
60848;DHT22;46681;47.696;9.140;2024-01-16T03:19:45;8.70;39.20
60848;DHT22;46681;47.696;9.140;2024-01-16T03:22:11;8.70;39.30
60848;DHT22;46681;47.696;9.140;2024-01-16T03:24:40;8.70;39.30
60848;DHT22;46681;47.696;9.140;2024-01-16T03:27:05;8.70;39.20
60848;DHT22;46681;47.696;9.140;2024-01-16T03:29:31;8.70;39.30
60848;DHT22;46681;47.696;9.140;2024-01-16T03:31:56;8.60;39.20
60848;DHT22;46681;47.696;9.140;2024-01-16T03:34:23;8.70;39.30
60848;DHT22;46681;47.696;9.140;2024-01-16T03:36:49;8.70;39.30
60848;DHT22;46681;47.696;9.140;2024-01-16T03:39:14;8.70;39.30
60848;DHT22;46681;47.696;9.140;2024-01-16T03:41:40;8.60;39.30
60848;DHT22;46681;47.696;9.140;2024-01-16T03:44:05;8.60;39.30
60848;DHT22;46681;47.696;9.140;2024-01-16T03:46:34;8.60;39.30
60848;DHT22;46681;47.696;9.140;2024-01-16T03:49:00;8.60;39.30
60848;DHT22;46681;47.696;9.140;2024-01-16T03:51:25;8.60;39.30
60848;DHT22;46681;47.696;9.140;2024-01-16T03:53:51;8.60;39.40
60848;DHT22;46681;47.696;9.140;2024-01-16T03:56:18;8.60;39.30
60848;DHT22;46681;47.696;9.140;2024-01-16T03:58:43;8.60;39.40
60848;DHT22;46681;47.696;9.140;2024-01-16T04:01:09;8.60;39.40
60848;DHT22;46681;47.696;9.140;2024-01-16T04:03:35;8.60;39.30
60848;DHT22;46681;47.696;9.140;2024-01-16T04:06:00;8.60;39.30
60848;DHT22;46681;47.696;9.140;2024-01-16T04:08:26;8.60;39.30
60848;DHT22;46681;47.696;9.140;2024-01-16T04:10:51;8.60;39.40
60848;DHT22;46681;47.696;9.140;2024-01-16T04:13:18;8.60;39.40
60848;DHT22;46681;47.696;9.140;2024-01-16T04:15:44;8.60;39.40
60848;DHT22;46681;47.696;9.140;2024-01-16T04:18:10;8.60;39.30
60848;DHT22;46681;47.696;9.140;2024-01-16T04:20:35;8.70;39.40
60848;DHT22;46681;47.696;9.140;2024-01-16T04:23:02;8.60;39.40
60848;DHT22;46681;47.696;9.140;2024-01-16T04:25:27;8.70;39.40
60848;DHT22;46681;47.696;9.140;2024-01-16T04:27:53;8.60;39.40
60848;DHT22;46681;47.696;9.140;2024-01-16T04:30:18;8.70;39.40
60848;DHT22;46681;47.696;9.140;2024-01-16T04:32:44;8.70;39.40
60848;DHT22;46681;47.696;9.140;2024-01-16T04:35:10;8.70;39.30
60848;DHT22;46681;47.696;9.140;2024-01-16T04:37:35;8.70;39.40
60848;DHT22;46681;47.696;9.140;2024-01-16T04:40:01;8.80;42.10
60848;DHT22;46681;47.696;9.140;2024-01-16T04:42:27;8.90;40.50
60848;DHT22;46681;47.696;9.140;2024-01-16T04:44:54;8.80;40.30
60848;DHT22;46681;47.696;9.140;2024-01-16T04:47:20;8.80;40.20
60848;DHT22;46681;47.696;9.140;2024-01-16T04:49:45;8.80;40.10
60848;DHT22;46681;47.696;9.140;2024-01-16T04:52:11;8.80;40.00
60848;DHT22;46681;47.696;9.140;2024-01-16T04:54:36;8.80;40.00
60848;DHT22;46681;47.696;9.140;2024-01-16T04:57:02;8.80;40.00
60848;DHT22;46681;47.696;9.140;2024-01-16T04:59:27;8.80;40.00
60848;DHT22;46681;47.696;9.140;2024-01-16T05:01:53;8.80;40.00
60848;DHT22;46681;47.696;9.140;2024-01-16T05:04:19;8.80;40.00
60848;DHT22;46681;47.696;9.140;2024-01-16T05:06:45;8.80;40.00
60848;DHT22;46681;47.696;9.140;2024-01-16T05:09:10;8.80;40.00
60848;DHT22;46681;47.696;9.140;2024-01-16T05:11:37;8.80;39.90
60848;DHT22;46681;47.696;9.140;2024-01-16T05:14:03;9.00;39.90
60848;DHT22;46681;47.696;9.140;2024-01-16T05:16:28;9.10;39.70
60848;DHT22;46681;47.696;9.140;2024-01-16T05:18:54;9.20;39.60
60848;DHT22;46681;47.696;9.140;2024-01-16T05:21:21;9.30;39.60
60848;DHT22;46681;47.696;9.140;2024-01-16T05:23:47;9.50;39.50
60848;DHT22;46681;47.696;9.140;2024-01-16T05:26:13;9.60;39.50
60848;DHT22;46681;47.696;9.140;2024-01-16T05:28:41;9.70;39.40
60848;DHT22;46681;47.696;9.140;2024-01-16T05:31:12;9.70;39.30
60848;DHT22;46681;47.696;9.140;2024-01-16T05:33:37;9.90;39.20
60848;DHT22;46681;47.696;9.140;2024-01-16T05:36:03;9.90;39.00
60848;DHT22;46681;47.696;9.140;2024-01-16T05:38:28;9.90;39.50
60848;DHT22;46681;47.696;9.140;2024-01-16T05:40:54;9.90;39.50
60848;DHT22;46681;47.696;9.140;2024-01-16T05:43:20;9.90;39.30
60848;DHT22;46681;47.696;9.140;2024-01-16T05:45:45;9.80;39.70
60848;DHT22;46681;47.696;9.140;2024-01-16T05:48:15;9.80;39.50
60848;DHT22;46681;47.696;9.140;2024-01-16T05:50:40;9.90;39.20
60848;DHT22;46681;47.696;9.140;2024-01-16T05:53:05;10.00;39.10
60848;DHT22;46681;47.696;9.140;2024-01-16T05:55:34;10.00;41.40
60848;DHT22;46681;47.696;9.140;2024-01-16T05:58:04;10.10;40.00
60848;DHT22;46681;47.696;9.140;2024-01-16T06:00:34;10.10;39.70
60848;DHT22;46681;47.696;9.140;2024-01-16T06:02:59;10.10;40.70
60848;DHT22;46681;47.696;9.140;2024-01-16T06:05:27;10.20;40.00
60848;DHT22;46681;47.696;9.140;2024-01-16T06:07:59;10.30;42.30
60848;DHT22;46681;47.696;9.140;2024-01-16T06:10:25;10.30;40.30
60848;DHT22;46681;47.696;9.140;2024-01-16T06:12:58;10.30;40.10
60848;DHT22;46681;47.696;9.140;2024-01-16T06:15:24;10.30;42.50
60848;DHT22;46681;47.696;9.140;2024-01-16T06:17:52;10.30;41.10
60848;DHT22;46681;47.696;9.140;2024-01-16T06:20:17;10.20;40.50
60848;DHT22;46681;47.696;9.140;2024-01-16T06:22:50;10.20;42.10
60848;DHT22;46681;47.696;9.140;2024-01-16T06:25:20;10.40;42.80
60848;DHT22;46681;47.696;9.140;2024-01-16T06:27:51;10.40;42.30
60848;DHT22;46681;47.696;9.140;2024-01-16T06:30:28;10.40;41.60
60848;DHT22;46681;47.696;9.140;2024-01-16T06:32:55;10.50;41.10
60848;DHT22;46681;47.696;9.140;2024-01-16T06:35:27;10.40;40.80
60848;DHT22;46681;47.696;9.140;2024-01-16T06:37:57;10.40;40.60
60848;DHT22;46681;47.696;9.140;2024-01-16T06:40:23;10.40;40.30
60848;DHT22;46681;47.696;9.140;2024-01-16T06:42:53;10.40;40.10
60848;DHT22;46681;47.696;9.140;2024-01-16T06:45:22;10.40;39.90
60848;DHT22;46681;47.696;9.140;2024-01-16T06:47:48;10.40;39.70
60848;DHT22;46681;47.696;9.140;2024-01-16T06:50:15;10.50;39.60
60848;DHT22;46681;47.696;9.140;2024-01-16T06:52:41;10.40;39.50
60848;DHT22;46681;47.696;9.140;2024-01-16T06:55:09;10.40;39.40
60848;DHT22;46681;47.696;9.140;2024-01-16T06:57:35;10.50;39.40
60848;DHT22;46681;47.696;9.140;2024-01-16T07:00:08;10.50;39.30
60848;DHT22;46681;47.696;9.140;2024-01-16T07:02:33;10.50;39.20
60848;DHT22;46681;47.696;9.140;2024-01-16T07:05:03;10.50;39.20
60848;DHT22;46681;47.696;9.140;2024-01-16T07:07:32;10.50;39.10
60848;DHT22;46681;47.696;9.140;2024-01-16T07:10:00;10.50;39.00
60848;DHT22;46681;47.696;9.140;2024-01-16T07:12:29;10.50;38.90
60848;DHT22;46681;47.696;9.140;2024-01-16T07:14:57;10.50;38.90
60848;DHT22;46681;47.696;9.140;2024-01-16T07:17:23;10.50;38.90
60848;DHT22;46681;47.696;9.140;2024-01-16T07:19:48;10.50;38.70
60848;DHT22;46681;47.696;9.140;2024-01-16T07:22:17;10.50;38.80
60848;DHT22;46681;47.696;9.140;2024-01-16T07:24:46;10.40;38.70
60848;DHT22;46681;47.696;9.140;2024-01-16T07:27:15;10.50;38.80
60848;DHT22;46681;47.696;9.140;2024-01-16T07:29:56;10.50;38.60
60848;DHT22;46681;47.696;9.140;2024-01-16T07:32:29;10.50;38.60
60848;DHT22;46681;47.696;9.140;2024-01-16T07:34:55;10.50;38.60
60848;DHT22;46681;47.696;9.140;2024-01-16T07:37:21;10.50;38.50
60848;DHT22;46681;47.696;9.140;2024-01-16T07:39:49;10.50;38.50
60848;DHT22;46681;47.696;9.140;2024-01-16T07:42:16;10.50;38.40
60848;DHT22;46681;47.696;9.140;2024-01-16T07:44:42;10.50;38.40
60848;DHT22;46681;47.696;9.140;2024-01-16T07:47:08;10.50;38.40
60848;DHT22;46681;47.696;9.140;2024-01-16T07:49:36;10.50;38.40
60848;DHT22;46681;47.696;9.140;2024-01-16T07:52:03;10.40;38.40
60848;DHT22;46681;47.696;9.140;2024-01-16T07:54:28;10.40;38.30
60848;DHT22;46681;47.696;9.140;2024-01-16T07:56:57;10.50;38.30
60848;DHT22;46681;47.696;9.140;2024-01-16T07:59:23;10.50;38.20
60848;DHT22;46681;47.696;9.140;2024-01-16T08:01:49;10.50;38.30
60848;DHT22;46681;47.696;9.140;2024-01-16T08:04:15;10.50;38.20
60848;DHT22;46681;47.696;9.140;2024-01-16T08:06:46;10.50;38.20
60848;DHT22;46681;47.696;9.140;2024-01-16T08:09:12;10.50;38.10
60848;DHT22;46681;47.696;9.140;2024-01-16T08:11:40;10.50;38.10
60848;DHT22;46681;47.696;9.140;2024-01-16T08:14:05;10.50;38.10
60848;DHT22;46681;47.696;9.140;2024-01-16T08:16:31;10.50;38.10
60848;DHT22;46681;47.696;9.140;2024-01-16T08:19:04;10.50;38.10
60848;DHT22;46681;47.696;9.140;2024-01-16T08:21:33;10.50;38.10
60848;DHT22;46681;47.696;9.140;2024-01-16T08:24:04;10.50;38.00
60848;DHT22;46681;47.696;9.140;2024-01-16T08:26:30;10.50;38.00
60848;DHT22;46681;47.696;9.140;2024-01-16T08:29:00;10.50;38.00
60848;DHT22;46681;47.696;9.140;2024-01-16T08:31:28;10.50;38.00
60848;DHT22;46681;47.696;9.140;2024-01-16T08:33:56;10.50;38.00
60848;DHT22;46681;47.696;9.140;2024-01-16T08:36:29;10.50;38.00
60848;DHT22;46681;47.696;9.140;2024-01-16T08:39:01;10.60;38.00
60848;DHT22;46681;47.696;9.140;2024-01-16T08:41:29;10.60;38.00
60848;DHT22;46681;47.696;9.140;2024-01-16T08:43:55;10.60;38.00
60848;DHT22;46681;47.696;9.140;2024-01-16T08:46:33;10.60;37.90
60848;DHT22;46681;47.696;9.140;2024-01-16T08:48:58;10.60;37.90
60848;DHT22;46681;47.696;9.140;2024-01-16T08:51:27;10.70;37.90
60848;DHT22;46681;47.696;9.140;2024-01-16T08:53:54;10.70;37.90
60848;DHT22;46681;47.696;9.140;2024-01-16T08:56:20;10.70;37.90
60848;DHT22;46681;47.696;9.140;2024-01-16T08:58:50;10.90;37.90
60848;DHT22;46681;47.696;9.140;2024-01-16T09:01:17;10.90;37.80
60848;DHT22;46681;47.696;9.140;2024-01-16T09:03:46;11.10;37.80
60848;DHT22;46681;47.696;9.140;2024-01-16T09:06:12;11.20;37.70
60848;DHT22;46681;47.696;9.140;2024-01-16T09:08:41;11.20;37.70
60848;DHT22;46681;47.696;9.140;2024-01-16T09:11:06;11.30;37.60
60848;DHT22;46681;47.696;9.140;2024-01-16T09:13:32;11.40;37.60
60848;DHT22;46681;47.696;9.140;2024-01-16T09:16:09;11.50;37.50
60848;DHT22;46681;47.696;9.140;2024-01-16T09:18:35;11.70;37.50
60848;DHT22;46681;47.696;9.140;2024-01-16T09:21:04;11.80;37.40
60848;DHT22;46681;47.696;9.140;2024-01-16T09:23:29;11.90;37.40
60848;DHT22;46681;47.696;9.140;2024-01-16T09:25:56;12.10;37.30
60848;DHT22;46681;47.696;9.140;2024-01-16T09:28:21;12.30;37.20
60848;DHT22;46681;47.696;9.140;2024-01-16T09:30:53;12.40;37.00
60848;DHT22;46681;47.696;9.140;2024-01-16T09:33:22;12.50;36.90
60848;DHT22;46681;47.696;9.140;2024-01-16T09:35:48;12.70;36.90
60848;DHT22;46681;47.696;9.140;2024-01-16T09:38:16;12.80;36.70
60848;DHT22;46681;47.696;9.140;2024-01-16T09:40:42;13.00;36.70
60848;DHT22;46681;47.696;9.140;2024-01-16T09:43:09;13.10;36.60
60848;DHT22;46681;47.696;9.140;2024-01-16T09:45:37;13.30;36.40
60848;DHT22;46681;47.696;9.140;2024-01-16T09:48:07;13.40;36.40
60848;DHT22;46681;47.696;9.140;2024-01-16T09:50:35;13.60;36.30
60848;DHT22;46681;47.696;9.140;2024-01-16T09:53:00;13.70;36.00
60848;DHT22;46681;47.696;9.140;2024-01-16T09:55:28;13.90;36.10
60848;DHT22;46681;47.696;9.140;2024-01-16T09:57:56;14.00;36.00
60848;DHT22;46681;47.696;9.140;2024-01-16T10:00:27;14.20;35.80
60848;DHT22;46681;47.696;9.140;2024-01-16T10:02:54;14.30;35.60
60848;DHT22;46681;47.696;9.140;2024-01-16T10:05:26;14.40;35.40
60848;DHT22;46681;47.696;9.140;2024-01-16T10:07:52;14.60;35.30
60848;DHT22;46681;47.696;9.140;2024-01-16T10:10:19;14.70;35.30
60848;DHT22;46681;47.696;9.140;2024-01-16T10:12:51;14.90;35.20
60848;DHT22;46681;47.696;9.140;2024-01-16T10:15:24;15.10;34.90
60848;DHT22;46681;47.696;9.140;2024-01-16T10:17:50;15.20;34.90
60848;DHT22;46681;47.696;9.140;2024-01-16T10:20:33;15.30;34.80
60848;DHT22;46681;47.696;9.140;2024-01-16T10:23:03;15.40;35.10
60848;DHT22;46681;47.696;9.140;2024-01-16T10:25:32;15.70;35.20
60848;DHT22;46681;47.696;9.140;2024-01-16T10:28:08;16.00;34.30
60848;DHT22;46681;47.696;9.140;2024-01-16T10:30:39;16.10;34.10
60848;DHT22;46681;47.696;9.140;2024-01-16T10:33:26;15.90;34.10
60848;DHT22;46681;47.696;9.140;2024-01-16T10:38:35;15.60;34.10
60848;DHT22;46681;47.696;9.140;2024-01-16T10:43:37;15.20;34.70
60848;DHT22;46681;47.696;9.140;2024-01-16T10:46:24;15.10;35.30
60848;DHT22;46681;47.696;9.140;2024-01-16T10:49:04;15.20;34.80
60848;DHT22;46681;47.696;9.140;2024-01-16T10:51:31;15.10;34.90
60848;DHT22;46681;47.696;9.140;2024-01-16T10:54:06;15.20;34.90
60848;DHT22;46681;47.696;9.140;2024-01-16T10:56:35;15.10;35.20
60848;DHT22;46681;47.696;9.140;2024-01-16T10:59:31;15.10;35.10
60848;DHT22;46681;47.696;9.140;2024-01-16T11:02:11;15.10;35.00
60848;DHT22;46681;47.696;9.140;2024-01-16T11:04:38;15.00;34.90
60848;DHT22;46681;47.696;9.140;2024-01-16T11:07:07;15.00;34.90
60848;DHT22;46681;47.696;9.140;2024-01-16T11:09:37;15.00;34.90
60848;DHT22;46681;47.696;9.140;2024-01-16T11:12:11;15.00;35.00
60848;DHT22;46681;47.696;9.140;2024-01-16T11:14:40;15.00;35.00
60848;DHT22;46681;47.696;9.140;2024-01-16T11:17:09;15.00;35.00
60848;DHT22;46681;47.696;9.140;2024-01-16T11:19:41;14.90;35.40
60848;DHT22;46681;47.696;9.140;2024-01-16T11:22:15;14.80;35.60
60848;DHT22;46681;47.696;9.140;2024-01-16T11:24:43;14.60;35.60
60848;DHT22;46681;47.696;9.140;2024-01-16T11:27:33;14.40;35.60
60848;DHT22;46681;47.696;9.140;2024-01-16T11:29:59;14.30;36.30
60848;DHT22;46681;47.696;9.140;2024-01-16T11:32:46;14.20;36.70
60848;DHT22;46681;47.696;9.140;2024-01-16T11:35:41;14.00;37.30
60848;DHT22;46681;47.696;9.140;2024-01-16T11:38:14;14.00;36.70
60848;DHT22;46681;47.696;9.140;2024-01-16T11:40:41;14.00;36.80
60848;DHT22;46681;47.696;9.140;2024-01-16T11:49:30;13.90;36.80
60848;DHT22;46681;47.696;9.140;2024-01-16T11:51:56;13.90;37.30
60848;DHT22;46681;47.696;9.140;2024-01-16T11:54:28;13.90;37.20
60848;DHT22;46681;47.696;9.140;2024-01-16T11:57:21;13.70;36.70
60848;DHT22;46681;47.696;9.140;2024-01-16T12:00:05;13.80;37.10
60848;DHT22;46681;47.696;9.140;2024-01-16T12:02:56;13.70;37.00
60848;DHT22;46681;47.696;9.140;2024-01-16T12:05:23;13.80;36.90
60848;DHT22;46681;47.696;9.140;2024-01-16T12:08:04;13.70;36.90
60848;DHT22;46681;47.696;9.140;2024-01-16T12:10:47;13.70;36.70
60848;DHT22;46681;47.696;9.140;2024-01-16T12:13:22;13.80;37.00
60848;DHT22;46681;47.696;9.140;2024-01-16T12:15:59;13.70;37.10
60848;DHT22;46681;47.696;9.140;2024-01-16T12:18:31;13.70;36.90
60848;DHT22;46681;47.696;9.140;2024-01-16T12:20:57;14.10;36.70
60848;DHT22;46681;47.696;9.140;2024-01-16T12:23:23;14.40;36.40
60848;DHT22;46681;47.696;9.140;2024-01-16T12:25:58;14.70;35.70
60848;DHT22;46681;47.696;9.140;2024-01-16T12:28:35;14.80;35.50
60848;DHT22;46681;47.696;9.140;2024-01-16T12:31:03;14.90;35.40
60848;DHT22;46681;47.696;9.140;2024-01-16T12:33:35;15.00;35.50
60848;DHT22;46681;47.696;9.140;2024-01-16T12:36:14;15.10;35.20
60848;DHT22;46681;47.696;9.140;2024-01-16T12:39:07;15.60;35.20
60848;DHT22;46681;47.696;9.140;2024-01-16T12:41:47;16.00;34.80
60848;DHT22;46681;47.696;9.140;2024-01-16T12:44:15;16.40;34.70
60848;DHT22;46681;47.696;9.140;2024-01-16T12:46:40;16.60;34.30
60848;DHT22;46681;47.696;9.140;2024-01-16T12:49:11;16.70;34.20
60848;DHT22;46681;47.696;9.140;2024-01-16T12:51:45;17.10;34.20
60848;DHT22;46681;47.696;9.140;2024-01-16T12:54:17;17.30;34.10
60848;DHT22;46681;47.696;9.140;2024-01-16T12:56:57;17.50;33.90
60848;DHT22;46681;47.696;9.140;2024-01-16T12:59:27;17.30;33.60
60848;DHT22;46681;47.696;9.140;2024-01-16T13:02:02;17.30;33.60
60848;DHT22;46681;47.696;9.140;2024-01-16T13:04:45;17.50;33.80
60848;DHT22;46681;47.696;9.140;2024-01-16T13:07:10;17.60;33.60
60848;DHT22;46681;47.696;9.140;2024-01-16T13:09:50;17.70;33.40
60848;DHT22;46681;47.696;9.140;2024-01-16T13:12:43;17.80;33.40
60848;DHT22;46681;47.696;9.140;2024-01-16T13:15:12;18.00;33.20
60848;DHT22;46681;47.696;9.140;2024-01-16T13:17:42;18.20;33.10
60848;DHT22;46681;47.696;9.140;2024-01-16T13:20:10;18.30;33.00
60848;DHT22;46681;47.696;9.140;2024-01-16T13:22:39;18.30;32.90
60848;DHT22;46681;47.696;9.140;2024-01-16T13:25:07;18.40;33.00
60848;DHT22;46681;47.696;9.140;2024-01-16T13:27:35;18.60;32.80
60848;DHT22;46681;47.696;9.140;2024-01-16T13:30:13;18.60;32.80
60848;DHT22;46681;47.696;9.140;2024-01-16T13:32:53;17.60;31.80
60848;DHT22;46681;47.696;9.140;2024-01-16T13:35:26;17.80;32.80
60848;DHT22;46681;47.696;9.140;2024-01-16T13:38:10;18.10;32.70
60848;DHT22;46681;47.696;9.140;2024-01-16T13:40:48;18.40;32.40
60848;DHT22;46681;47.696;9.140;2024-01-16T13:43:20;18.70;32.20
60848;DHT22;46681;47.696;9.140;2024-01-16T13:45:46;18.70;32.40
60848;DHT22;46681;47.696;9.140;2024-01-16T13:48:12;18.90;32.10
60848;DHT22;46681;47.696;9.140;2024-01-16T13:50:46;19.10;32.00
60848;DHT22;46681;47.696;9.140;2024-01-16T13:53:14;19.10;31.80
60848;DHT22;46681;47.696;9.140;2024-01-16T13:55:48;19.10;31.90
60848;DHT22;46681;47.696;9.140;2024-01-16T13:58:14;19.20;32.00
60848;DHT22;46681;47.696;9.140;2024-01-16T14:00:45;19.20;31.90
60848;DHT22;46681;47.696;9.140;2024-01-16T14:03:17;19.30;31.90
60848;DHT22;46681;47.696;9.140;2024-01-16T14:05:46;19.10;32.10
60848;DHT22;46681;47.696;9.140;2024-01-16T14:08:13;18.90;32.10
60848;DHT22;46681;47.696;9.140;2024-01-16T14:10:39;18.50;32.00
60848;DHT22;46681;47.696;9.140;2024-01-16T14:13:08;18.00;32.30
60848;DHT22;46681;47.696;9.140;2024-01-16T14:15:34;17.40;32.50
60848;DHT22;46681;47.696;9.140;2024-01-16T14:18:01;16.80;33.10
60848;DHT22;46681;47.696;9.140;2024-01-16T14:20:27;16.50;33.40
60848;DHT22;46681;47.696;9.140;2024-01-16T14:22:59;16.20;34.00
60848;DHT22;46681;47.696;9.140;2024-01-16T14:25:25;15.90;34.20
60848;DHT22;46681;47.696;9.140;2024-01-16T14:28:17;15.60;34.50
60848;DHT22;46681;47.696;9.140;2024-01-16T14:30:49;15.30;34.60
60848;DHT22;46681;47.696;9.140;2024-01-16T14:33:20;15.10;35.00
60848;DHT22;46681;47.696;9.140;2024-01-16T14:35:57;15.00;35.00
60848;DHT22;46681;47.696;9.140;2024-01-16T14:38:29;15.00;35.10
60848;DHT22;46681;47.696;9.140;2024-01-16T14:41:04;15.00;34.60
60848;DHT22;46681;47.696;9.140;2024-01-16T14:43:32;15.10;34.50
60848;DHT22;46681;47.696;9.140;2024-01-16T14:45:57;15.30;34.60
60848;DHT22;46681;47.696;9.140;2024-01-16T14:48:23;15.60;33.90
60848;DHT22;46681;47.696;9.140;2024-01-16T14:51:00;15.60;34.10
60848;DHT22;46681;47.696;9.140;2024-01-16T14:53:44;15.70;34.00
60848;DHT22;46681;47.696;9.140;2024-01-16T14:56:12;16.00;34.20
60848;DHT22;46681;47.696;9.140;2024-01-16T14:58:45;16.10;33.90
60848;DHT22;46681;47.696;9.140;2024-01-16T15:01:29;16.10;34.00
60848;DHT22;46681;47.696;9.140;2024-01-16T15:04:04;16.10;34.00
60848;DHT22;46681;47.696;9.140;2024-01-16T15:06:45;16.10;34.00
60848;DHT22;46681;47.696;9.140;2024-01-16T15:09:25;15.70;34.50
60848;DHT22;46681;47.696;9.140;2024-01-16T15:11:58;15.40;34.90
60848;DHT22;46681;47.696;9.140;2024-01-16T15:14:30;15.10;35.40
60848;DHT22;46681;47.696;9.140;2024-01-16T15:17:04;14.80;35.70
60848;DHT22;46681;47.696;9.140;2024-01-16T15:19:32;14.50;35.90
60848;DHT22;46681;47.696;9.140;2024-01-16T15:22:01;14.20;36.70
60848;DHT22;46681;47.696;9.140;2024-01-16T15:24:40;13.90;37.50
60848;DHT22;46681;47.696;9.140;2024-01-16T15:27:10;13.50;37.70
60848;DHT22;46681;47.696;9.140;2024-01-16T15:29:39;13.30;37.70
60848;DHT22;46681;47.696;9.140;2024-01-16T15:32:05;13.10;37.70
60848;DHT22;46681;47.696;9.140;2024-01-16T15:34:30;12.90;38.20
60848;DHT22;46681;47.696;9.140;2024-01-16T15:37:00;12.80;38.50
60848;DHT22;46681;47.696;9.140;2024-01-16T15:39:25;12.60;38.50
60848;DHT22;46681;47.696;9.140;2024-01-16T15:41:53;12.40;38.70
60848;DHT22;46681;47.696;9.140;2024-01-16T15:44:28;12.30;38.80
60848;DHT22;46681;47.696;9.140;2024-01-16T15:47:07;12.20;38.90
60848;DHT22;46681;47.696;9.140;2024-01-16T15:49:34;12.00;38.90
60848;DHT22;46681;47.696;9.140;2024-01-16T15:52:08;11.90;39.00
60848;DHT22;46681;47.696;9.140;2024-01-16T15:54:35;11.80;39.10
60848;DHT22;46681;47.696;9.140;2024-01-16T15:57:14;11.70;39.10
60848;DHT22;46681;47.696;9.140;2024-01-16T15:59:52;11.60;39.20
60848;DHT22;46681;47.696;9.140;2024-01-16T16:02:27;11.50;39.30